sensor_id;sensor_type;location;lat;lon;timestamp;temperature;humidity
38183;DHT22;23991;52.430;10.586;2023-12-14T00:01:36;5.80;85.70
38183;DHT22;23991;52.430;10.586;2023-12-14T00:04:04;5.80;85.80
38183;DHT22;23991;52.430;10.586;2023-12-14T00:06:30;5.80;85.70
38183;DHT22;23991;52.430;10.586;2023-12-14T00:08:55;5.80;85.70
38183;DHT22;23991;52.430;10.586;2023-12-14T00:11:21;5.70;85.70
38183;DHT22;23991;52.430;10.586;2023-12-14T00:13:46;5.70;85.80
38183;DHT22;23991;52.430;10.586;2023-12-14T00:16:12;5.70;85.80
38183;DHT22;23991;52.430;10.586;2023-12-14T00:18:38;5.60;85.70
38183;DHT22;23991;52.430;10.586;2023-12-14T00:21:04;5.70;85.70
38183;DHT22;23991;52.430;10.586;2023-12-14T00:23:30;5.60;85.40
38183;DHT22;23991;52.430;10.586;2023-12-14T00:25:55;5.60;85.50
38183;DHT22;23991;52.430;10.586;2023-12-14T00:28:21;5.60;85.60
38183;DHT22;23991;52.430;10.586;2023-12-14T00:30:48;5.60;85.60
38183;DHT22;23991;52.430;10.586;2023-12-14T00:33:13;5.50;85.50
38183;DHT22;23991;52.430;10.586;2023-12-14T00:35:39;5.50;85.50
38183;DHT22;23991;52.430;10.586;2023-12-14T00:38:04;5.50;85.50
38183;DHT22;23991;52.430;10.586;2023-12-14T00:40:30;5.50;85.60
38183;DHT22;23991;52.430;10.586;2023-12-14T00:42:56;5.50;85.60
38183;DHT22;23991;52.430;10.586;2023-12-14T00:45:21;5.60;85.50
38183;DHT22;23991;52.430;10.586;2023-12-14T00:47:47;5.50;85.50
38183;DHT22;23991;52.430;10.586;2023-12-14T00:50:12;5.60;85.60
38183;DHT22;23991;52.430;10.586;2023-12-14T00:52:38;5.60;85.60
38183;DHT22;23991;52.430;10.586;2023-12-14T00:55:04;5.60;85.70
38183;DHT22;23991;52.430;10.586;2023-12-14T00:57:36;5.60;85.60
38183;DHT22;23991;52.430;10.586;2023-12-14T01:00:02;5.50;85.50
38183;DHT22;23991;52.430;10.586;2023-12-14T01:02:27;5.50;85.50
38183;DHT22;23991;52.430;10.586;2023-12-14T01:04:53;5.40;85.70
38183;DHT22;23991;52.430;10.586;2023-12-14T01:07:18;5.40;85.70
38183;DHT22;23991;52.430;10.586;2023-12-14T01:09:47;5.40;85.70
38183;DHT22;23991;52.430;10.586;2023-12-14T01:12:13;5.40;85.80
38183;DHT22;23991;52.430;10.586;2023-12-14T01:14:38;5.40;85.70
38183;DHT22;23991;52.430;10.586;2023-12-14T01:17:04;5.40;85.70
38183;DHT22;23991;52.430;10.586;2023-12-14T01:19:30;5.40;85.80
38183;DHT22;23991;52.430;10.586;2023-12-14T01:21:55;5.30;85.80
38183;DHT22;23991;52.430;10.586;2023-12-14T01:24:21;5.30;85.90
38183;DHT22;23991;52.430;10.586;2023-12-14T01:26:46;5.30;86.00
38183;DHT22;23991;52.430;10.586;2023-12-14T01:29:12;5.30;85.90
38183;DHT22;23991;52.430;10.586;2023-12-14T01:31:38;5.30;85.90
38183;DHT22;23991;52.430;10.586;2023-12-14T01:34:03;5.30;85.80
38183;DHT22;23991;52.430;10.586;2023-12-14T01:36:29;5.30;85.90
38183;DHT22;23991;52.430;10.586;2023-12-14T01:38:55;5.30;85.90
38183;DHT22;23991;52.430;10.586;2023-12-14T01:41:20;5.30;85.90
38183;DHT22;23991;52.430;10.586;2023-12-14T01:43:46;5.30;86.00
38183;DHT22;23991;52.430;10.586;2023-12-14T01:46:11;5.40;85.90
38183;DHT22;23991;52.430;10.586;2023-12-14T01:48:38;5.30;85.70
38183;DHT22;23991;52.430;10.586;2023-12-14T01:51:04;5.30;85.60
38183;DHT22;23991;52.430;10.586;2023-12-14T01:53:29;5.30;85.70
38183;DHT22;23991;52.430;10.586;2023-12-14T01:55:56;5.30;85.60
38183;DHT22;23991;52.430;10.586;2023-12-14T01:58:21;5.20;85.60
38183;DHT22;23991;52.430;10.586;2023-12-14T02:03:31;5.20;85.70
38183;DHT22;23991;52.430;10.586;2023-12-14T02:05:56;5.20;85.60
38183;DHT22;23991;52.430;10.586;2023-12-14T02:08:24;5.20;85.60
38183;DHT22;23991;52.430;10.586;2023-12-14T02:10:50;5.20;85.60
38183;DHT22;23991;52.430;10.586;2023-12-14T02:13:15;5.10;85.60
38183;DHT22;23991;52.430;10.586;2023-12-14T02:15:41;5.10;85.70
38183;DHT22;23991;52.430;10.586;2023-12-14T02:18:07;5.10;85.60
38183;DHT22;23991;52.430;10.586;2023-12-14T02:20:33;5.10;85.60
38183;DHT22;23991;52.430;10.586;2023-12-14T02:22:59;5.10;85.70
38183;DHT22;23991;52.430;10.586;2023-12-14T02:25:24;5.10;85.80
38183;DHT22;23991;52.430;10.586;2023-12-14T02:27:51;5.10;85.70
38183;DHT22;23991;52.430;10.586;2023-12-14T02:30:17;5.10;85.70
38183;DHT22;23991;52.430;10.586;2023-12-14T02:32:44;5.10;85.70
38183;DHT22;23991;52.430;10.586;2023-12-14T02:35:09;5.10;85.80
38183;DHT22;23991;52.430;10.586;2023-12-14T02:37:36;5.10;85.70
38183;DHT22;23991;52.430;10.586;2023-12-14T02:40:06;5.10;85.90
38183;DHT22;23991;52.430;10.586;2023-12-14T02:42:32;5.10;85.80
38183;DHT22;23991;52.430;10.586;2023-12-14T02:44:58;5.10;85.90
38183;DHT22;23991;52.430;10.586;2023-12-14T02:47:24;5.10;85.90
38183;DHT22;23991;52.430;10.586;2023-12-14T02:49:50;5.10;85.90
38183;DHT22;23991;52.430;10.586;2023-12-14T02:52:15;5.00;85.80
38183;DHT22;23991;52.430;10.586;2023-12-14T02:54:41;5.00;85.90
38183;DHT22;23991;52.430;10.586;2023-12-14T02:57:07;5.00;85.90
38183;DHT22;23991;52.430;10.586;2023-12-14T02:59:33;4.90;85.80
38183;DHT22;23991;52.430;10.586;2023-12-14T03:01:58;4.90;85.80
38183;DHT22;23991;52.430;10.586;2023-12-14T03:04:25;4.90;85.80
38183;DHT22;23991;52.430;10.586;2023-12-14T03:06:50;4.90;86.00
38183;DHT22;23991;52.430;10.586;2023-12-14T03:09:19;4.90;86.10
38183;DHT22;23991;52.430;10.586;2023-12-14T03:11:45;4.90;86.10
38183;DHT22;23991;52.430;10.586;2023-12-14T03:14:11;4.90;86.20
38183;DHT22;23991;52.430;10.586;2023-12-14T03:16:37;4.90;86.20
38183;DHT22;23991;52.430;10.586;2023-12-14T03:19:02;4.90;86.10
38183;DHT22;23991;52.430;10.586;2023-12-14T03:21:29;4.90;86.10
38183;DHT22;23991;52.430;10.586;2023-12-14T03:23:54;4.90;86.10
38183;DHT22;23991;52.430;10.586;2023-12-14T03:26:20;4.80;86.10
38183;DHT22;23991;52.430;10.586;2023-12-14T03:28:46;4.90;86.00
38183;DHT22;23991;52.430;10.586;2023-12-14T03:31:12;4.90;86.00
38183;DHT22;23991;52.430;10.586;2023-12-14T03:33:38;4.90;85.90
38183;DHT22;23991;52.430;10.586;2023-12-14T03:36:04;4.90;85.90
38183;DHT22;23991;52.430;10.586;2023-12-14T03:38:31;4.80;85.90
38183;DHT22;23991;52.430;10.586;2023-12-14T03:40:57;4.80;85.90
38183;DHT22;23991;52.430;10.586;2023-12-14T03:43:22;4.80;86.00
38183;DHT22;23991;52.430;10.586;2023-12-14T03:45:48;4.90;85.90
38183;DHT22;23991;52.430;10.586;2023-12-14T03:48:14;4.80;86.00
38183;DHT22;23991;52.430;10.586;2023-12-14T03:50:39;4.80;86.00
38183;DHT22;23991;52.430;10.586;2023-12-14T03:53:05;4.80;86.10
38183;DHT22;23991;52.430;10.586;2023-12-14T03:55:31;4.90;86.10
38183;DHT22;23991;52.430;10.586;2023-12-14T03:57:56;4.80;86.10
38183;DHT22;23991;52.430;10.586;2023-12-14T04:00:22;4.90;86.20
38183;DHT22;23991;52.430;10.586;2023-12-14T04:02:47;4.90;86.20
38183;DHT22;23991;52.430;10.586;2023-12-14T04:05:13;4.90;86.20
38183;DHT22;23991;52.430;10.586;2023-12-14T04:07:39;4.90;86.30
38183;DHT22;23991;52.430;10.586;2023-12-14T04:10:12;4.90;86.30
38183;DHT22;23991;52.430;10.586;2023-12-14T04:12:38;4.80;86.20
38183;DHT22;23991;52.430;10.586;2023-12-14T04:15:05;4.80;86.20
38183;DHT22;23991;52.430;10.586;2023-12-14T04:17:31;4.80;86.30
38183;DHT22;23991;52.430;10.586;2023-12-14T04:19:57;4.80;86.20
38183;DHT22;23991;52.430;10.586;2023-12-14T04:22:23;4.80;86.30
38183;DHT22;23991;52.430;10.586;2023-12-14T04:24:50;4.80;86.30
38183;DHT22;23991;52.430;10.586;2023-12-14T04:27:16;4.80;86.30
38183;DHT22;23991;52.430;10.586;2023-12-14T04:29:41;4.80;86.40
38183;DHT22;23991;52.430;10.586;2023-12-14T04:32:07;4.90;86.30
38183;DHT22;23991;52.430;10.586;2023-12-14T04:34:33;4.90;86.30
38183;DHT22;23991;52.430;10.586;2023-12-14T04:36:59;4.80;86.20
38183;DHT22;23991;52.430;10.586;2023-12-14T04:39:25;4.80;86.30
38183;DHT22;23991;52.430;10.586;2023-12-14T04:41:51;4.80;86.30
38183;DHT22;23991;52.430;10.586;2023-12-14T04:44:21;4.80;86.20
38183;DHT22;23991;52.430;10.586;2023-12-14T04:46:47;4.80;86.10
38183;DHT22;23991;52.430;10.586;2023-12-14T04:49:13;4.80;86.20
38183;DHT22;23991;52.430;10.586;2023-12-14T04:51:39;4.70;86.10
38183;DHT22;23991;52.430;10.586;2023-12-14T04:54:05;4.80;86.30
38183;DHT22;23991;52.430;10.586;2023-12-14T04:56:30;4.80;86.30
38183;DHT22;23991;52.430;10.586;2023-12-14T04:58:56;4.80;86.40
38183;DHT22;23991;52.430;10.586;2023-12-14T05:01:21;4.80;86.20
38183;DHT22;23991;52.430;10.586;2023-12-14T05:03:47;4.80;86.30
38183;DHT22;23991;52.430;10.586;2023-12-14T05:06:13;4.80;86.20
38183;DHT22;23991;52.430;10.586;2023-12-14T05:08:38;4.80;86.20
38183;DHT22;23991;52.430;10.586;2023-12-14T05:11:04;4.80;86.20
38183;DHT22;23991;52.430;10.586;2023-12-14T05:13:30;4.80;86.30
38183;DHT22;23991;52.430;10.586;2023-12-14T05:15:55;4.80;86.30
38183;DHT22;23991;52.430;10.586;2023-12-14T05:18:23;4.70;86.30
38183;DHT22;23991;52.430;10.586;2023-12-14T05:20:50;4.80;86.40
38183;DHT22;23991;52.430;10.586;2023-12-14T05:23:15;4.80;86.20
38183;DHT22;23991;52.430;10.586;2023-12-14T05:25:41;4.70;86.30
38183;DHT22;23991;52.430;10.586;2023-12-14T05:28:07;4.70;86.20
38183;DHT22;23991;52.430;10.586;2023-12-14T05:30:32;4.70;86.30
38183;DHT22;23991;52.430;10.586;2023-12-14T05:32:58;4.70;86.40
38183;DHT22;23991;52.430;10.586;2023-12-14T05:35:23;4.70;86.40
38183;DHT22;23991;52.430;10.586;2023-12-14T05:37:49;4.60;86.40
38183;DHT22;23991;52.430;10.586;2023-12-14T05:40:15;4.60;86.40
38183;DHT22;23991;52.430;10.586;2023-12-14T05:42:40;4.60;86.50
38183;DHT22;23991;52.430;10.586;2023-12-14T05:45:07;4.60;86.60
38183;DHT22;23991;52.430;10.586;2023-12-14T05:47:33;4.70;86.60
38183;DHT22;23991;52.430;10.586;2023-12-14T05:50:00;4.60;86.50
38183;DHT22;23991;52.430;10.586;2023-12-14T05:52:26;4.60;86.60
38183;DHT22;23991;52.430;10.586;2023-12-14T05:54:52;4.70;86.50
38183;DHT22;23991;52.430;10.586;2023-12-14T05:57:18;4.60;86.50
38183;DHT22;23991;52.430;10.586;2023-12-14T05:59:43;4.70;86.50
38183;DHT22;23991;52.430;10.586;2023-12-14T06:02:09;4.60;86.40
38183;DHT22;23991;52.430;10.586;2023-12-14T06:04:34;4.60;86.40
38183;DHT22;23991;52.430;10.586;2023-12-14T06:07:00;4.60;86.40
38183;DHT22;23991;52.430;10.586;2023-12-14T06:09:29;4.60;86.30
38183;DHT22;23991;52.430;10.586;2023-12-14T06:12:02;4.60;86.40
38183;DHT22;23991;52.430;10.586;2023-12-14T06:14:28;4.60;86.40
38183;DHT22;23991;52.430;10.586;2023-12-14T06:16:54;4.70;86.40
38183;DHT22;23991;52.430;10.586;2023-12-14T06:19:20;4.60;86.30
38183;DHT22;23991;52.430;10.586;2023-12-14T06:21:45;4.60;86.40
38183;DHT22;23991;52.430;10.586;2023-12-14T06:24:11;4.70;86.40
38183;DHT22;23991;52.430;10.586;2023-12-14T06:26:46;4.60;86.50
38183;DHT22;23991;52.430;10.586;2023-12-14T06:29:12;4.60;86.50
38183;DHT22;23991;52.430;10.586;2023-12-14T06:31:38;4.60;86.50
38183;DHT22;23991;52.430;10.586;2023-12-14T06:34:05;4.60;86.50
38183;DHT22;23991;52.430;10.586;2023-12-14T06:36:30;4.60;86.60
38183;DHT22;23991;52.430;10.586;2023-12-14T06:38:58;4.60;86.60
38183;DHT22;23991;52.430;10.586;2023-12-14T06:41:24;4.60;86.60
38183;DHT22;23991;52.430;10.586;2023-12-14T06:43:50;4.60;86.60
38183;DHT22;23991;52.430;10.586;2023-12-14T06:46:16;4.60;86.60
38183;DHT22;23991;52.430;10.586;2023-12-14T06:48:42;4.60;86.60
38183;DHT22;23991;52.430;10.586;2023-12-14T06:51:08;4.60;86.60
38183;DHT22;23991;52.430;10.586;2023-12-14T06:53:34;4.60;86.60
38183;DHT22;23991;52.430;10.586;2023-12-14T06:56:03;4.60;86.60
38183;DHT22;23991;52.430;10.586;2023-12-14T06:58:28;4.60;86.50
38183;DHT22;23991;52.430;10.586;2023-12-14T07:00:54;4.60;86.60
38183;DHT22;23991;52.430;10.586;2023-12-14T07:03:19;4.60;86.60
38183;DHT22;23991;52.430;10.586;2023-12-14T07:05:45;4.60;86.70
38183;DHT22;23991;52.430;10.586;2023-12-14T07:08:11;4.60;86.70
38183;DHT22;23991;52.430;10.586;2023-12-14T07:10:36;4.60;86.60
38183;DHT22;23991;52.430;10.586;2023-12-14T07:13:02;4.50;86.70
38183;DHT22;23991;52.430;10.586;2023-12-14T07:15:27;4.60;86.80
38183;DHT22;23991;52.430;10.586;2023-12-14T07:17:53;4.60;86.80
38183;DHT22;23991;52.430;10.586;2023-12-14T07:20:19;4.50;86.90
38183;DHT22;23991;52.430;10.586;2023-12-14T07:22:44;4.50;86.90
38183;DHT22;23991;52.430;10.586;2023-12-14T07:25:10;4.50;86.90
38183;DHT22;23991;52.430;10.586;2023-12-14T07:27:36;4.50;86.80
38183;DHT22;23991;52.430;10.586;2023-12-14T07:30:01;4.50;86.80
38183;DHT22;23991;52.430;10.586;2023-12-14T07:32:27;4.50;86.90
38183;DHT22;23991;52.430;10.586;2023-12-14T07:34:52;4.50;87.00
38183;DHT22;23991;52.430;10.586;2023-12-14T07:37:18;4.50;86.90
38183;DHT22;23991;52.430;10.586;2023-12-14T07:39:44;4.50;87.00
38183;DHT22;23991;52.430;10.586;2023-12-14T07:42:10;4.50;87.00
38183;DHT22;23991;52.430;10.586;2023-12-14T07:44:35;4.50;87.10
38183;DHT22;23991;52.430;10.586;2023-12-14T07:47:01;4.50;87.10
38183;DHT22;23991;52.430;10.586;2023-12-14T07:49:27;4.50;87.20
38183;DHT22;23991;52.430;10.586;2023-12-14T07:51:53;4.50;87.20
38183;DHT22;23991;52.430;10.586;2023-12-14T07:54:18;4.50;87.20
38183;DHT22;23991;52.430;10.586;2023-12-14T07:56:44;4.50;87.20
38183;DHT22;23991;52.430;10.586;2023-12-14T07:59:11;4.50;87.20
38183;DHT22;23991;52.430;10.586;2023-12-14T08:01:36;4.50;87.30
38183;DHT22;23991;52.430;10.586;2023-12-14T08:04:02;4.60;87.40
38183;DHT22;23991;52.430;10.586;2023-12-14T08:06:29;4.60;87.40
38183;DHT22;23991;52.430;10.586;2023-12-14T08:08:55;4.70;87.40
38183;DHT22;23991;52.430;10.586;2023-12-14T08:11:23;4.80;87.30
38183;DHT22;23991;52.430;10.586;2023-12-14T08:13:49;4.90;87.30
38183;DHT22;23991;52.430;10.586;2023-12-14T08:16:15;4.90;87.10
38183;DHT22;23991;52.430;10.586;2023-12-14T08:18:43;5.00;87.00
38183;DHT22;23991;52.430;10.586;2023-12-14T08:21:10;5.00;86.80
38183;DHT22;23991;52.430;10.586;2023-12-14T08:23:35;5.00;86.70
38183;DHT22;23991;52.430;10.586;2023-12-14T08:26:01;5.10;86.50
38183;DHT22;23991;52.430;10.586;2023-12-14T08:28:30;5.10;86.40
38183;DHT22;23991;52.430;10.586;2023-12-14T08:30:55;5.10;86.30
38183;DHT22;23991;52.430;10.586;2023-12-14T08:33:24;5.10;86.10
38183;DHT22;23991;52.430;10.586;2023-12-14T08:35:49;5.20;86.00
38183;DHT22;23991;52.430;10.586;2023-12-14T08:38:16;5.30;85.90
38183;DHT22;23991;52.430;10.586;2023-12-14T08:40:42;5.30;85.60
38183;DHT22;23991;52.430;10.586;2023-12-14T08:43:07;5.30;85.30
38183;DHT22;23991;52.430;10.586;2023-12-14T08:45:33;5.40;85.30
38183;DHT22;23991;52.430;10.586;2023-12-14T08:47:58;5.50;85.00
38183;DHT22;23991;52.430;10.586;2023-12-14T08:50:24;5.50;84.80
38183;DHT22;23991;52.430;10.586;2023-12-14T08:52:54;5.60;84.80
38183;DHT22;23991;52.430;10.586;2023-12-14T08:55:20;5.60;84.60
38183;DHT22;23991;52.430;10.586;2023-12-14T08:57:47;5.70;84.40
38183;DHT22;23991;52.430;10.586;2023-12-14T09:00:13;5.80;84.30
38183;DHT22;23991;52.430;10.586;2023-12-14T09:02:39;5.80;84.00
38183;DHT22;23991;52.430;10.586;2023-12-14T09:05:08;5.80;83.70
38183;DHT22;23991;52.430;10.586;2023-12-14T09:07:33;5.90;83.60
38183;DHT22;23991;52.430;10.586;2023-12-14T09:09:59;5.90;83.10
38183;DHT22;23991;52.430;10.586;2023-12-14T09:12:25;6.00;82.70
38183;DHT22;23991;52.430;10.586;2023-12-14T09:14:50;6.00;82.70
38183;DHT22;23991;52.430;10.586;2023-12-14T09:17:16;6.10;82.50
38183;DHT22;23991;52.430;10.586;2023-12-14T09:19:42;6.20;82.50
38183;DHT22;23991;52.430;10.586;2023-12-14T09:22:07;6.20;82.40
38183;DHT22;23991;52.430;10.586;2023-12-14T09:24:33;6.30;82.10
38183;DHT22;23991;52.430;10.586;2023-12-14T09:26:58;6.40;82.10
38183;DHT22;23991;52.430;10.586;2023-12-14T09:29:24;6.40;81.80
38183;DHT22;23991;52.430;10.586;2023-12-14T09:31:50;6.40;81.90
38183;DHT22;23991;52.430;10.586;2023-12-14T09:34:15;6.50;81.70
38183;DHT22;23991;52.430;10.586;2023-12-14T09:36:41;6.60;81.40
38183;DHT22;23991;52.430;10.586;2023-12-14T09:39:07;6.60;80.90
38183;DHT22;23991;52.430;10.586;2023-12-14T09:41:37;6.70;81.00
38183;DHT22;23991;52.430;10.586;2023-12-14T09:44:06;6.60;81.10
38183;DHT22;23991;52.430;10.586;2023-12-14T09:46:34;6.70;80.60
38183;DHT22;23991;52.430;10.586;2023-12-14T09:49:02;6.80;80.10
38183;DHT22;23991;52.430;10.586;2023-12-14T09:51:30;6.80;79.90
38183;DHT22;23991;52.430;10.586;2023-12-14T09:53:56;6.90;79.60
38183;DHT22;23991;52.430;10.586;2023-12-14T09:56:27;6.90;79.20
38183;DHT22;23991;52.430;10.586;2023-12-14T09:58:53;6.90;79.20
38183;DHT22;23991;52.430;10.586;2023-12-14T10:01:26;6.90;79.40
38183;DHT22;23991;52.430;10.586;2023-12-14T10:04:21;6.90;79.00
38183;DHT22;23991;52.430;10.586;2023-12-14T10:06:48;7.00;79.10
38183;DHT22;23991;52.430;10.586;2023-12-14T10:09:14;7.00;79.00
38183;DHT22;23991;52.430;10.586;2023-12-14T10:11:44;7.10;78.80
38183;DHT22;23991;52.430;10.586;2023-12-14T10:14:24;7.20;78.40
38183;DHT22;23991;52.430;10.586;2023-12-14T10:16:51;7.30;78.30
38183;DHT22;23991;52.430;10.586;2023-12-14T10:19:18;7.40;77.90
38183;DHT22;23991;52.430;10.586;2023-12-14T10:21:44;7.30;78.20
38183;DHT22;23991;52.430;10.586;2023-12-14T10:24:15;7.40;78.10
38183;DHT22;23991;52.430;10.586;2023-12-14T10:26:41;7.40;77.90
38183;DHT22;23991;52.430;10.586;2023-12-14T10:29:09;7.40;77.90
38183;DHT22;23991;52.430;10.586;2023-12-14T10:31:36;7.40;77.80
38183;DHT22;23991;52.430;10.586;2023-12-14T10:34:06;7.40;77.50
38183;DHT22;23991;52.430;10.586;2023-12-14T10:36:35;7.40;77.70
38183;DHT22;23991;52.430;10.586;2023-12-14T10:39:01;7.30;78.00
38183;DHT22;23991;52.430;10.586;2023-12-14T10:41:30;7.40;78.20
38183;DHT22;23991;52.430;10.586;2023-12-14T10:43:57;7.50;78.00
38183;DHT22;23991;52.430;10.586;2023-12-14T10:46:24;7.50;77.80
38183;DHT22;23991;52.430;10.586;2023-12-14T10:48:51;7.50;77.90
38183;DHT22;23991;52.430;10.586;2023-12-14T10:51:22;7.60;77.40
38183;DHT22;23991;52.430;10.586;2023-12-14T10:53:49;7.70;77.40
38183;DHT22;23991;52.430;10.586;2023-12-14T10:56:17;7.60;77.10
38183;DHT22;23991;52.430;10.586;2023-12-14T10:58:52;7.60;77.30
38183;DHT22;23991;52.430;10.586;2023-12-14T11:01:22;7.70;77.40
38183;DHT22;23991;52.430;10.586;2023-12-14T11:03:56;7.80;76.70
38183;DHT22;23991;52.430;10.586;2023-12-14T11:06:28;7.80;76.50
38183;DHT22;23991;52.430;10.586;2023-12-14T11:09:03;7.80;76.50
38183;DHT22;23991;52.430;10.586;2023-12-14T11:11:58;7.90;76.30
38183;DHT22;23991;52.430;10.586;2023-12-14T11:14:26;7.90;76.00
38183;DHT22;23991;52.430;10.586;2023-12-14T11:16:57;8.00;75.90
38183;DHT22;23991;52.430;10.586;2023-12-14T11:19:30;8.00;75.60
38183;DHT22;23991;52.430;10.586;2023-12-14T11:24:31;8.10;75.30
38183;DHT22;23991;52.430;10.586;2023-12-14T11:26:56;8.10;75.00
38183;DHT22;23991;52.430;10.586;2023-12-14T11:29:25;8.10;75.10
38183;DHT22;23991;52.430;10.586;2023-12-14T11:31:52;8.20;75.10
38183;DHT22;23991;52.430;10.586;2023-12-14T11:34:17;8.20;75.00
38183;DHT22;23991;52.430;10.586;2023-12-14T11:36:43;8.30;74.70
38183;DHT22;23991;52.430;10.586;2023-12-14T11:39:11;8.20;74.50
38183;DHT22;23991;52.430;10.586;2023-12-14T11:41:40;8.30;74.80
38183;DHT22;23991;52.430;10.586;2023-12-14T11:44:05;8.20;74.90
38183;DHT22;23991;52.430;10.586;2023-12-14T11:46:32;8.30;75.00
38183;DHT22;23991;52.430;10.586;2023-12-14T11:48:58;8.40;74.70
38183;DHT22;23991;52.430;10.586;2023-12-14T11:51:24;8.40;74.40
38183;DHT22;23991;52.430;10.586;2023-12-14T11:53:52;8.50;73.90
38183;DHT22;23991;52.430;10.586;2023-12-14T11:56:19;8.50;73.70
38183;DHT22;23991;52.430;10.586;2023-12-14T11:58:45;8.50;74.00
38183;DHT22;23991;52.430;10.586;2023-12-14T12:01:16;8.60;73.90
38183;DHT22;23991;52.430;10.586;2023-12-14T12:03:43;8.50;74.00
38183;DHT22;23991;52.430;10.586;2023-12-14T12:06:20;8.50;73.90
38183;DHT22;23991;52.430;10.586;2023-12-14T12:08:46;8.50;74.00
38183;DHT22;23991;52.430;10.586;2023-12-14T12:11:17;8.40;74.00
38183;DHT22;23991;52.430;10.586;2023-12-14T12:13:42;8.40;74.30
38183;DHT22;23991;52.430;10.586;2023-12-14T12:16:08;8.50;74.10
38183;DHT22;23991;52.430;10.586;2023-12-14T12:18:33;8.50;73.60
38183;DHT22;23991;52.430;10.586;2023-12-14T12:20:59;8.50;73.80
38183;DHT22;23991;52.430;10.586;2023-12-14T12:23:29;8.60;73.40
38183;DHT22;23991;52.430;10.586;2023-12-14T12:25:55;8.60;73.30
38183;DHT22;23991;52.430;10.586;2023-12-14T12:28:21;8.60;73.20
38183;DHT22;23991;52.430;10.586;2023-12-14T12:30:47;8.60;73.40
38183;DHT22;23991;52.430;10.586;2023-12-14T12:33:13;8.60;73.80
38183;DHT22;23991;52.430;10.586;2023-12-14T12:35:38;8.60;73.60
38183;DHT22;23991;52.430;10.586;2023-12-14T12:38:04;8.60;73.50
38183;DHT22;23991;52.430;10.586;2023-12-14T12:40:29;8.50;73.20
38183;DHT22;23991;52.430;10.586;2023-12-14T12:42:57;8.60;73.80
38183;DHT22;23991;52.430;10.586;2023-12-14T12:45:22;8.60;73.90
38183;DHT22;23991;52.430;10.586;2023-12-14T12:47:51;8.60;74.00
38183;DHT22;23991;52.430;10.586;2023-12-14T12:50:16;8.60;74.20
38183;DHT22;23991;52.430;10.586;2023-12-14T12:52:42;8.70;74.00
38183;DHT22;23991;52.430;10.586;2023-12-14T12:55:08;8.80;73.50
38183;DHT22;23991;52.430;10.586;2023-12-14T12:57:35;8.80;73.50
38183;DHT22;23991;52.430;10.586;2023-12-14T13:00:01;8.70;73.50
38183;DHT22;23991;52.430;10.586;2023-12-14T13:02:29;8.70;73.60
38183;DHT22;23991;52.430;10.586;2023-12-14T13:04:55;8.70;73.40
38183;DHT22;23991;52.430;10.586;2023-12-14T13:07:20;8.70;73.70
38183;DHT22;23991;52.430;10.586;2023-12-14T13:09:46;8.70;73.90
38183;DHT22;23991;52.430;10.586;2023-12-14T13:12:11;8.70;73.80
38183;DHT22;23991;52.430;10.586;2023-12-14T13:14:37;8.80;73.10
38183;DHT22;23991;52.430;10.586;2023-12-14T13:17:03;8.70;73.30
38183;DHT22;23991;52.430;10.586;2023-12-14T13:19:28;8.60;73.20
38183;DHT22;23991;52.430;10.586;2023-12-14T13:21:54;8.70;73.20
38183;DHT22;23991;52.430;10.586;2023-12-14T13:24:23;8.70;73.20
38183;DHT22;23991;52.430;10.586;2023-12-14T13:26:49;8.60;73.20
38183;DHT22;23991;52.430;10.586;2023-12-14T13:29:15;8.60;73.30
38183;DHT22;23991;52.430;10.586;2023-12-14T13:31:40;8.50;73.70
38183;DHT22;23991;52.430;10.586;2023-12-14T13:34:06;8.60;73.70
38183;DHT22;23991;52.430;10.586;2023-12-14T13:36:31;8.70;73.10
38183;DHT22;23991;52.430;10.586;2023-12-14T13:38:57;8.70;72.80
38183;DHT22;23991;52.430;10.586;2023-12-14T13:41:24;8.70;72.90
38183;DHT22;23991;52.430;10.586;2023-12-14T13:43:50;8.70;73.00
38183;DHT22;23991;52.430;10.586;2023-12-14T13:46:17;8.70;72.90
38183;DHT22;23991;52.430;10.586;2023-12-14T13:48:43;8.70;73.30
38183;DHT22;23991;52.430;10.586;2023-12-14T13:51:08;8.70;73.30
38183;DHT22;23991;52.430;10.586;2023-12-14T13:53:34;8.60;73.10
38183;DHT22;23991;52.430;10.586;2023-12-14T13:56:00;8.60;73.10
38183;DHT22;23991;52.430;10.586;2023-12-14T13:58:25;8.60;73.30
38183;DHT22;23991;52.430;10.586;2023-12-14T14:00:51;8.70;73.40
38183;DHT22;23991;52.430;10.586;2023-12-14T14:03:16;8.60;73.60
38183;DHT22;23991;52.430;10.586;2023-12-14T14:05:42;8.60;73.40
38183;DHT22;23991;52.430;10.586;2023-12-14T14:08:09;8.60;73.60
38183;DHT22;23991;52.430;10.586;2023-12-14T14:10:35;8.60;73.90
38183;DHT22;23991;52.430;10.586;2023-12-14T14:13:01;8.40;74.10
38183;DHT22;23991;52.430;10.586;2023-12-14T14:15:27;8.40;74.60
38183;DHT22;23991;52.430;10.586;2023-12-14T14:17:53;8.30;74.80
38183;DHT22;23991;52.430;10.586;2023-12-14T14:20:20;8.30;75.00
38183;DHT22;23991;52.430;10.586;2023-12-14T14:22:45;8.30;75.10
38183;DHT22;23991;52.430;10.586;2023-12-14T14:25:11;8.20;75.40
38183;DHT22;23991;52.430;10.586;2023-12-14T14:27:37;8.10;75.70
38183;DHT22;23991;52.430;10.586;2023-12-14T14:30:03;8.00;75.90
38183;DHT22;23991;52.430;10.586;2023-12-14T14:32:32;8.00;76.20
38183;DHT22;23991;52.430;10.586;2023-12-14T14:35:00;7.90;76.40
38183;DHT22;23991;52.430;10.586;2023-12-14T14:37:26;7.90;76.50
38183;DHT22;23991;52.430;10.586;2023-12-14T14:39:52;7.80;76.80
38183;DHT22;23991;52.430;10.586;2023-12-14T14:42:17;7.80;77.40
38183;DHT22;23991;52.430;10.586;2023-12-14T14:44:43;7.80;77.40
38183;DHT22;23991;52.430;10.586;2023-12-14T14:47:09;7.70;77.50
38183;DHT22;23991;52.430;10.586;2023-12-14T14:49:34;7.70;77.70
38183;DHT22;23991;52.430;10.586;2023-12-14T14:52:00;7.70;77.70
38183;DHT22;23991;52.430;10.586;2023-12-14T14:54:26;7.60;77.70
38183;DHT22;23991;52.430;10.586;2023-12-14T14:56:51;7.60;77.70
38183;DHT22;23991;52.430;10.586;2023-12-14T14:59:17;7.50;77.70
38183;DHT22;23991;52.430;10.586;2023-12-14T15:01:43;7.40;78.10
38183;DHT22;23991;52.430;10.586;2023-12-14T15:04:10;7.30;78.20
38183;DHT22;23991;52.430;10.586;2023-12-14T15:06:36;7.20;78.30
38183;DHT22;23991;52.430;10.586;2023-12-14T15:09:02;7.30;78.60
38183;DHT22;23991;52.430;10.586;2023-12-14T15:11:28;7.20;78.70
38183;DHT22;23991;52.430;10.586;2023-12-14T15:13:53;7.20;78.70
38183;DHT22;23991;52.430;10.586;2023-12-14T15:16:19;7.20;78.70
38183;DHT22;23991;52.430;10.586;2023-12-14T15:18:45;7.10;78.80
38183;DHT22;23991;52.430;10.586;2023-12-14T15:21:11;7.10;79.20
38183;DHT22;23991;52.430;10.586;2023-12-14T15:23:37;7.00;79.50
38183;DHT22;23991;52.430;10.586;2023-12-14T15:26:03;6.90;79.70
38183;DHT22;23991;52.430;10.586;2023-12-14T15:28:29;6.90;79.80
38183;DHT22;23991;52.430;10.586;2023-12-14T15:30:54;6.90;80.00